Chicot, Arkansas
Current Conditions -  °F | °C
As of 6:53 AM on Sunday 23 Nov 2014 (Local Time) from KGLH Reporting Station
Haze Haze  
Wind Chill: 61°   Ceiling: 900
Heat Index: 61°   Visibility: 6mi
Dew Point: 58°   Wind: 15mph
Humidity: 90%   Direction: 130°SE
Pressure: 29.7"   Gusts: NA
Location:  33.1306°N, 91.2896°W
Report Text: KGLH 231253Z AUTO 13013KT 6SM BR OVC009 16/14 A2970 RMK AO2 SLP064 T01610144
Loading
Personal Weather Stations






























Interactive Weather Map New forecast layout! Learn more

10-Day Weather Forecast

Advertisements
Track Severe Weather on mobile